Time;durP1;ratioP1;P1;durP2;ratioP2;P2;SDS_P1;SDS_P2;PMS_P1;PMS_P2;Temp;Humidity;BMP_temperature;BMP_pressure;BME280_temperature;BME280_humidity;BME280_pressure;Samples;Min_cycle;Max_cycle;Signal;HPM_P1;HPM_P2
2021/08/30 00:00:19;;;;;;;9.85;3.10;;;19.70;93.40;;;;;;4275402;27;20103;-64
2021/08/30 00:02:24;;;;;;;9.75;3.22;;;19.60;93.60;;;;;;4283153;27;20038;-64
2021/08/30 00:04:30;;;;;;;10.95;2.92;;;19.70;93.40;;;;;;4276413;27;20058;-64
2021/08/30 00:06:33;;;;;;;11.38;2.75;;;19.80;93.40;;;;;;4275077;27;20278;-64
2021/08/30 00:08:36;;;;;;;12.15;2.75;;;19.60;93.80;;;;;;4275119;27;20090;-64
2021/08/30 00:10:39;;;;;;;11.77;2.92;;;19.60;94.00;;;;;;4275038;27;20380;-64
2021/08/30 00:12:43;;;;;;;18.15;3.70;;;19.60;93.70;;;;;;4275201;27;20050;-64
2021/08/30 00:14:45;;;;;;;14.27;3.20;;;19.60;94.10;;;;;;4275296;27;20099;-63
2021/08/30 00:16:50;;;;;;;13.90;3.63;;;19.60;94.00;;;;;;4274558;27;20059;-65
2021/08/30 00:18:53;;;;;;;9.88;3.58;;;19.60;93.70;;;;;;4275811;27;20080;-68
2021/08/30 00:20:56;;;;;;;11.32;3.53;;;19.70;93.50;;;;;;4275827;27;20111;-64
2021/08/30 00:23:00;;;;;;;;;;;19.60;94.10;;;;;;4275667;27;20047;-64
2021/08/30 00:25:07;;;;;;;;;;;19.60;93.90;;;;;;4275499;27;19914;-64
2021/08/30 00:27:10;;;;;;;20.05;4.32;;;19.60;93.90;;;;;;4276679;27;19915;-64
2021/08/30 00:29:13;;;;;;;17.90;4.05;;;19.70;93.70;;;;;;4277207;27;20054;-67
2021/08/30 00:31:16;;;;;;;17.83;3.65;;;19.70;93.40;;;;;;4277116;27;20055;-65
2021/08/30 00:33:20;;;;;;;14.68;3.70;;;19.60;93.90;;;;;;4276711;27;20055;-65
2021/08/30 00:35:23;;;;;;;13.52;3.97;;;19.70;93.90;;;;;;4276326;27;20051;-66
2021/08/30 00:37:26;;;;;;;18.08;4.15;;;19.70;94.00;;;;;;4276281;27;20091;-64
2021/08/30 00:39:31;;;;;;;16.73;4.00;;;19.70;93.80;;;;;;4276075;27;20289;-67
2021/08/30 00:41:34;;;;;;;9.48;2.97;;;19.70;94.00;;;;;;4275833;27;20103;-68
2021/08/30 00:43:37;;;;;;;16.33;4.68;;;19.70;93.80;;;;;;4275971;27;20050;-64
2021/08/30 00:45:41;;;;;;;22.83;4.50;;;19.70;93.60;;;;;;4275019;27;20054;-64
2021/08/30 00:47:45;;;;;;;13.07;4.05;;;19.70;94.00;;;;;;4274697;27;20051;-64
2021/08/30 00:49:49;;;;;;;17.25;4.28;;;19.70;94.00;;;;;;4275182;27;20047;-65
2021/08/30 00:51:53;;;;;;;18.75;4.15;;;19.40;94.60;;;;;;4276171;27;20119;-65
2021/08/30 00:53:58;;;;;;;15.02;4.50;;;19.60;94.40;;;;;;4275093;27;20050;-64
2021/08/30 00:56:01;;;;;;;17.23;4.30;;;19.60;94.40;;;;;;4274670;27;20042;-64
2021/08/30 00:58:04;;;;;;;16.77;4.47;;;19.60;94.50;;;;;;4274472;27;20042;-64
2021/08/30 01:00:08;;;;;;;10.93;4.18;;;19.50;94.80;;;;;;4274319;27;20051;-64
2021/08/30 01:02:12;;;;;;;17.23;4.82;;;19.50;95.20;;;;;;4274632;27;20378;-64
2021/08/30 01:04:16;;;;;;;14.18;4.72;;;19.20;96.30;;;;;;4274423;27;20979;-64
2021/08/30 01:06:35;;;;;;;20.60;4.88;;;19.10;96.30;;;;;;4274487;27;20054;-69
2021/08/30 01:08:42;;;;;;;18.15;4.55;;;19.10;96.50;;;;;;4274373;27;20280;-64
2021/08/30 01:10:51;;;;;;;24.40;5.18;;;19.00;96.80;;;;;;4275076;27;20323;-64
2021/08/30 01:12:59;;;;;;;17.60;5.05;;;19.20;96.10;;;;;;4275012;27;20051;-65
2021/08/30 01:15:11;;;;;;;21.88;5.22;;;19.30;96.00;;;;;;4277607;27;20058;-65
2021/08/30 01:17:15;;;;;;;19.45;5.60;;;19.30;96.40;;;;;;4258952;27;20085;-64
2021/08/30 01:19:24;;;;;;;18.92;5.30;;;19.30;96.60;;;;;;4276995;27;20072;-66
2021/08/30 01:21:32;;;;;;;21.10;5.72;;;19.30;96.50;;;;;;4273278;27;20051;-64
2021/08/30 01:23:37;;;;;;;16.15;4.93;;;19.30;96.70;;;;;;4273686;27;20107;-64
2021/08/30 01:25:40;;;;;;;21.80;5.95;;;19.10;97.20;;;;;;4273846;27;20042;-64
2021/08/30 01:27:46;;;;;;;20.98;5.35;;;19.10;97.40;;;;;;4273852;27;20051;-64
2021/08/30 01:29:58;;;;;;;24.55;6.40;;;19.20;97.10;;;;;;4255651;27;20113;-64
2021/08/30 01:32:07;;;;;;;15.25;5.53;;;19.30;96.90;;;;;;4273771;27;20043;-64
2021/08/30 01:34:14;;;;;;;20.90;5.80;;;19.30;96.80;;;;;;4273611;27;20336;-63
2021/08/30 01:36:18;;;;;;;17.73;5.75;;;19.40;96.60;;;;;;4273250;27;20281;-64
2021/08/30 01:38:23;;;;;;;19.38;5.90;;;19.40;96.80;;;;;;4273799;27;20068;-64
2021/08/30 01:40:28;;;;;;;15.38;5.55;;;19.40;96.60;;;;;;4273383;27;20047;-64
2021/08/30 01:42:34;;;;;;;18.08;5.63;;;19.40;96.60;;;;;;4273429;27;20046;-64
2021/08/30 01:44:38;;;;;;;21.23;6.10;;;19.40;96.50;;;;;;4273599;27;20355;-64
2021/08/30 01:46:42;;;;;;;21.67;6.28;;;19.40;97.10;;;;;;4273605;27;20058;-64
2021/08/30 01:48:50;;;;;;;28.58;6.55;;;19.30;97.20;;;;;;4273633;27;20055;-67
2021/08/30 01:50:54;;;;;;;17.65;6.65;;;19.40;96.40;;;;;;4278868;27;20050;-66
2021/08/30 01:53:01;;;;;;;25.70;7.47;;;19.30;97.40;;;;;;4278707;27;20280;-64
2021/08/30 01:55:19;;;;;;;20.55;6.05;;;19.10;98.30;;;;;;4273471;27;20091;-64
2021/08/30 01:57:24;;;;;;;19.25;7.15;;;19.10;98.20;;;;;;4273759;27;20250;-64
2021/08/30 02:01:49;;;;;;;15.05;6.65;;;19.00;98.90;;;;;;4276469;27;20210;-64
2021/08/30 02:03:52;;;;;;;21.25;7.65;;;18.90;99.60;;;;;;4275553;27;20343;-64
2021/08/30 02:05:59;;;;;;;18.83;7.05;;;18.90;99.70;;;;;;4273359;27;20107;-64
2021/08/30 02:08:03;;;;;;;19.88;6.88;;;19.00;99.40;;;;;;4254912;27;20363;-64
2021/08/30 02:10:06;;;;;;;18.13;6.53;;;19.00;99.70;;;;;;4273347;27;20235;-64
2021/08/30 02:12:09;;;;;;;15.43;6.30;;;18.90;99.60;;;;;;4254975;27;20051;-64
2021/08/30 02:14:12;;;;;;;15.10;6.65;;;19.00;99.70;;;;;;4272785;27;20062;-64
2021/08/30 02:16:15;;;;;;;18.05;6.88;;;19.00;99.90;;;;;;4273347;27;20119;-65
2021/08/30 02:18:24;;;;;;;15.88;6.43;;;18.90;99.90;;;;;;4273127;27;20106;-64
2021/08/30 02:20:29;;;;;;;14.52;6.47;;;18.90;99.90;;;;;;4274724;27;20062;-73
2021/08/30 02:22:39;;;;;;;12.23;5.80;;;19.00;99.80;;;;;;4278337;27;20051;-64
2021/08/30 02:24:45;;;;;;;16.50;6.32;;;19.20;99.20;;;;;;4280837;27;20042;-72
2021/08/30 02:26:53;;;;;;;16.45;6.43;;;19.20;99.20;;;;;;4279823;27;20050;-64
2021/08/30 02:28:59;;;;;;;16.90;6.90;;;19.20;99.70;;;;;;4276676;27;20090;-64
2021/08/30 02:31:03;;;;;;;16.10;6.75;;;19.20;99.20;;;;;;4274743;27;20054;-64
2021/08/30 02:33:10;;;;;;;19.60;7.50;;;19.20;99.60;;;;;;4275294;27;20261;-64
2021/08/30 02:35:16;;;;;;;18.15;6.90;;;19.10;99.70;;;;;;4274736;27;20047;-65
2021/08/30 02:37:21;;;;;;;13.30;5.90;;;19.10;99.90;;;;;;4274679;27;20331;-64
2021/08/30 02:39:27;;;;;;;15.13;6.78;;;19.20;99.30;;;;;;4273070;27;20055;-64
2021/08/30 02:41:31;;;;;;;19.50;6.82;;;19.20;99.50;;;;;;4272841;27;20247;-64
2021/08/30 02:43:34;;;;;;;14.13;6.30;;;19.20;99.80;;;;;;4272845;27;20076;-64
2021/08/30 02:45:39;;;;;;;12.77;6.85;;;19.00;99.90;;;;;;4274981;27;20231;-64
2021/08/30 02:47:43;;;;;;;11.57;6.40;;;18.90;99.90;;;;;;4276245;27;20516;-64
2021/08/30 02:49:48;;;;;;;17.73;6.97;;;19.10;99.90;;;;;;4273671;27;20096;-64
2021/08/30 02:51:51;;;;;;;12.00;6.40;;;18.90;99.90;;;;;;4272754;27;20310;-64
2021/08/30 02:53:55;;;;;;;22.85;6.78;;;19.10;99.90;;;;;;4272538;27;20043;-64
2021/08/30 02:56:00;;;;;;;17.40;6.93;;;19.00;99.90;;;;;;4272383;27;20306;-64
2021/08/30 02:58:05;;;;;;;;;;;19.10;99.90;;;;;;4273208;27;20298;-64
2021/08/30 03:00:10;;;;;;;14.95;6.97;;;19.20;99.90;;;;;;4272407;27;19915;-64
2021/08/30 03:02:13;;;;;;;19.65;7.30;;;19.10;99.90;;;;;;4272477;27;20071;-65
2021/08/30 03:04:17;;;;;;;16.15;7.32;;;19.10;99.90;;;;;;4272343;27;20051;-64
2021/08/30 03:06:21;;;;;;;16.40;7.18;;;19.30;99.90;;;;;;4272697;27;20343;-64
2021/08/30 03:08:24;;;;;;;18.58;7.82;;;19.20;99.90;;;;;;4272501;27;20058;-64
2021/08/30 03:10:29;;;;;;;17.95;8.40;;;19.10;99.90;;;;;;4272784;27;20042;-64
2021/08/30 03:12:38;;;;;;;19.08;8.35;;;19.10;99.90;;;;;;4272677;27;20051;-63
2021/08/30 03:14:44;;;;;;;17.35;8.43;;;19.10;99.90;;;;;;4272456;27;20109;-64
2021/08/30 03:16:48;;;;;;;15.27;8.43;;;19.10;99.90;;;;;;4272624;27;20054;-63
2021/08/30 03:18:52;;;;;;;19.63;8.95;;;19.00;99.90;;;;;;4272554;27;20055;-64
2021/08/30 03:20:56;;;;;;;19.45;8.60;;;18.90;99.90;;;;;;4272619;27;20050;-63
2021/08/30 03:23:00;;;;;;;16.00;8.38;;;18.90;99.90;;;;;;4272335;27;20114;-65
2021/08/30 03:25:06;;;;;;;18.35;9.23;;;19.00;99.90;;;;;;4272527;27;20047;-64
2021/08/30 03:27:09;;;;;;;18.95;8.80;;;18.90;99.90;;;;;;4272452;27;20050;-64
2021/08/30 03:29:15;;;;;;;19.05;8.45;;;18.90;99.90;;;;;;4273059;27;20050;-64
2021/08/30 03:31:18;;;;;;;14.20;7.97;;;19.00;99.90;;;;;;4275628;27;20076;-64
2021/08/30 03:33:24;;;;;;;17.20;8.90;;;19.10;99.90;;;;;;4275425;27;20288;-64
2021/08/30 03:35:29;;;;;;;17.23;8.95;;;19.00;99.90;;;;;;4272257;27;20239;-64
2021/08/30 03:37:33;;;;;;;16.15;8.63;;;18.80;99.90;;;;;;4272262;27;20099;-64
2021/08/30 03:39:36;;;;;;;15.63;8.63;;;18.90;99.90;;;;;;4280494;27;20047;-64
2021/08/30 03:41:40;;;;;;;19.63;9.25;;;18.90;99.90;;;;;;4274604;27;20050;-64
2021/08/30 03:43:43;;;;;;;15.70;8.53;;;18.90;99.90;;;;;;4274723;27;20051;-64
2021/08/30 03:45:49;;;;;;;16.33;8.50;;;18.90;99.90;;;;;;4275521;27;20039;-64
2021/08/30 03:47:54;;;;;;;16.83;8.57;;;19.10;99.90;;;;;;4274920;27;20219;-64
2021/08/30 03:49:58;;;;;;;20.70;8.60;;;19.10;99.90;;;;;;4275385;27;20099;-63
2021/08/30 03:52:03;;;;;;;25.25;9.48;;;19.10;99.90;;;;;;4275235;27;20051;-64
2021/08/30 03:54:08;;;;;;;19.40;9.43;;;19.20;99.90;;;;;;4275327;27;20046;-64
2021/08/30 03:56:12;;;;;;;17.25;8.90;;;19.30;99.90;;;;;;4275543;27;20051;-64
2021/08/30 03:58:18;;;;;;;17.35;7.72;;;19.30;99.90;;;;;;4277163;27;20099;-64
2021/08/30 04:00:21;;;;;;;13.85;8.65;;;19.40;99.90;;;;;;4278484;27;20050;-65
2021/08/30 04:02:29;;;;;;;18.75;9.52;;;19.40;99.90;;;;;;4276993;27;20054;-65
2021/08/30 04:04:33;;;;;;;15.98;8.70;;;19.30;99.90;;;;;;4275534;27;20084;-63
2021/08/30 04:06:36;;;;;;;15.48;9.25;;;19.50;99.90;;;;;;4274880;27;20103;-63
2021/08/30 04:08:40;;;;;;;21.10;9.38;;;19.40;99.90;;;;;;4275002;27;20058;-64
2021/08/30 04:10:43;;;;;;;19.75;8.77;;;19.50;99.90;;;;;;4274974;27;20352;-64
2021/08/30 04:12:46;;;;;;;15.25;9.20;;;19.60;99.90;;;;;;4274761;27;20330;-64
2021/08/30 04:14:50;;;;;;;23.25;10.15;;;19.40;99.90;;;;;;4275910;27;20051;-64
2021/08/30 04:16:54;;;;;;;15.45;9.57;;;19.40;99.90;;;;;;4278373;27;20051;-69
2021/08/30 04:18:58;;;;;;;19.58;10.13;;;19.50;99.90;;;;;;4276682;27;20062;-64
2021/08/30 04:21:01;;;;;;;16.20;10.63;;;19.40;99.90;;;;;;4274955;27;20119;-64
2021/08/30 04:23:04;;;;;;;18.08;10.52;;;19.50;99.90;;;;;;4274553;27;20224;-64
2021/08/30 04:25:08;;;;;;;17.67;9.90;;;19.60;99.90;;;;;;4274735;27;20103;-64
2021/08/30 04:27:11;;;;;;;14.10;9.55;;;19.60;99.90;;;;;;4274785;27;20050;-64
2021/08/30 04:29:15;;;;;;;15.18;10.55;;;19.50;99.90;;;;;;4274537;27;20325;-64
2021/08/30 04:31:18;;;;;;;18.30;10.88;;;19.60;99.90;;;;;;4274596;27;20050;-64
2021/08/30 04:33:23;;;;;;;22.30;12.27;;;19.60;99.90;;;;;;4274424;27;20050;-64
2021/08/30 04:35:27;;;;;;;19.47;12.50;;;19.60;99.90;;;;;;4274484;27;20126;-64
2021/08/30 04:37:30;;;;;;;16.50;10.55;;;19.60;99.90;;;;;;4274602;27;20046;-65
2021/08/30 04:39:33;;;;;;;22.85;13.05;;;19.60;99.90;;;;;;4274455;27;20251;-64
2021/08/30 04:41:36;;;;;;;20.70;12.75;;;19.50;99.90;;;;;;4274262;27;20335;-64
2021/08/30 04:43:39;;;;;;;23.45;13.65;;;19.60;99.90;;;;;;4274410;27;20079;-64
2021/08/30 04:45:42;;;;;;;24.90;13.27;;;19.60;99.90;;;;;;4274395;27;20046;-64
2021/08/30 04:47:45;;;;;;;28.42;13.13;;;19.60;99.90;;;;;;4274094;27;20054;-65
2021/08/30 04:49:48;;;;;;;22.85;12.73;;;19.70;99.90;;;;;;4274396;27;20051;-64
2021/08/30 04:51:53;;;;;;;24.45;13.55;;;19.70;99.90;;;;;;4273905;27;20059;-64
2021/08/30 04:53:56;;;;;;;20.65;14.30;;;19.70;99.90;;;;;;4255613;27;20088;-64
2021/08/30 04:55:59;;;;;;;23.75;15.10;;;19.70;99.90;;;;;;4273713;27;20051;-64
2021/08/30 04:58:04;;;;;;;20.42;14.63;;;19.60;99.90;;;;;;4274057;27;20090;-64
2021/08/30 05:00:09;;;;;;;20.85;14.75;;;19.70;99.90;;;;;;4276419;27;20114;-64
2021/08/30 05:02:12;;;;;;;21.02;13.70;;;19.70;99.90;;;;;;4278232;27;20096;-64
2021/08/30 05:04:15;;;;;;;26.25;15.15;;;19.80;99.90;;;;;;4275234;27;20051;-65
2021/08/30 05:06:18;;;;;;;20.15;14.63;;;19.70;99.90;;;;;;4274194;27;20277;-65
2021/08/30 05:08:24;;;;;;;24.15;15.38;;;19.70;99.90;;;;;;4274309;27;20058;-64
2021/08/30 05:10:26;;;;;;;20.77;14.73;;;19.70;99.90;;;;;;4274100;27;20050;-64
2021/08/30 05:12:29;;;;;;;29.38;16.35;;;19.70;99.90;;;;;;4273871;27;20047;-64
2021/08/30 05:14:34;;;;;;;26.10;16.10;;;19.60;99.90;;;;;;4273395;27;20162;-64
2021/08/30 05:16:37;;;;;;;;;;;19.70;99.90;;;;;;4274222;27;20060;-64
2021/08/30 05:18:40;;;;;;;22.65;15.55;;;19.70;99.90;;;;;;4273640;27;19959;-64
2021/08/30 05:20:49;;;;;;;33.38;16.38;;;19.50;99.90;;;;;;4273909;27;20099;-64
2021/08/30 05:22:52;;;;;;;28.80;17.10;;;19.50;99.90;;;;;;4273579;27;20050;-64
2021/08/30 05:24:56;;;;;;;29.45;16.15;;;19.60;99.90;;;;;;4273353;27;20100;-64
2021/08/30 05:26:59;;;;;;;29.50;17.33;;;19.60;99.90;;;;;;4281570;27;20346;-64
2021/08/30 05:29:03;;;;;;;26.15;16.13;;;19.50;99.90;;;;;;4274997;27;20343;-64
2021/08/30 05:31:06;;;;;;;23.35;16.92;;;19.50;99.90;;;;;;4273883;27;20050;-64
2021/08/30 05:33:09;;;;;;;26.83;18.00;;;19.50;99.90;;;;;;4273289;27;20224;-64
2021/08/30 05:35:12;;;;;;;27.80;19.08;;;19.50;99.90;;;;;;4273498;27;20050;-64
2021/08/30 05:37:15;;;;;;;34.17;19.75;;;19.40;99.90;;;;;;4273590;27;20099;-64
2021/08/30 05:39:18;;;;;;;31.10;19.17;;;19.40;99.90;;;;;;4273533;27;20046;-65
2021/08/30 05:41:22;;;;;;;28.73;20.63;;;19.40;99.90;;;;;;4273646;27;20331;-64
2021/08/30 05:43:25;;;;;;;28.52;20.55;;;19.50;99.90;;;;;;4276043;27;20050;-65
2021/08/30 05:45:32;;;;;;;32.72;20.85;;;19.40;99.90;;;;;;4275680;27;20354;-67
2021/08/30 05:47:35;;;;;;;29.00;20.80;;;19.50;99.90;;;;;;4274290;27;20374;-64
2021/08/30 05:49:38;;;;;;;28.63;20.85;;;19.50;99.90;;;;;;4272921;27;20437;-64
2021/08/30 05:51:41;;;;;;;37.72;21.77;;;19.50;99.90;;;;;;4273128;27;20050;-64
2021/08/30 05:53:44;;;;;;;33.40;21.15;;;19.40;99.90;;;;;;4272877;27;20102;-64
2021/08/30 05:55:47;;;;;;;30.38;20.80;;;19.50;99.90;;;;;;4273443;27;20058;-64
2021/08/30 05:57:51;;;;;;;38.90;22.15;;;19.50;99.90;;;;;;4273394;27;20102;-64
2021/08/30 05:59:54;;;;;;;38.17;22.90;;;19.50;99.90;;;;;;4273275;27;20054;-64
2021/08/30 06:01:57;;;;;;;38.58;22.55;;;19.40;99.90;;;;;;4273097;27;20059;-64
2021/08/30 06:04:00;;;;;;;31.48;21.95;;;19.40;99.90;;;;;;4272971;27;20220;-64
2021/08/30 06:06:03;;;;;;;30.77;21.55;;;19.50;99.90;;;;;;4272134;27;20046;-64
2021/08/30 06:08:06;;;;;;;40.38;23.45;;;19.60;99.90;;;;;;4272829;27;20051;-65
2021/08/30 06:10:10;;;;;;;31.65;23.10;;;19.50;99.90;;;;;;4273002;27;20051;-64
2021/08/30 06:12:13;;;;;;;32.95;22.95;;;19.50;99.90;;;;;;4273072;27;20050;-64
2021/08/30 06:14:17;;;;;;;37.30;24.42;;;19.50;99.90;;;;;;4254842;27;20339;-64
2021/08/30 06:16:20;;;;;;;34.08;22.25;;;19.50;99.90;;;;;;4273154;27;20247;-64
2021/08/30 06:18:25;;;;;;;36.40;23.98;;;19.50;99.90;;;;;;4272874;27;20083;-64
2021/08/30 06:20:28;;;;;;;35.67;23.10;;;19.40;99.90;;;;;;4272949;27;20091;-64
2021/08/30 06:22:31;;;;;;;40.28;24.80;;;19.50;99.90;;;;;;4272478;27;20059;-66
2021/08/30 06:24:35;;;;;;;36.00;24.00;;;19.40;99.90;;;;;;4272575;27;20046;-64
2021/08/30 06:26:38;;;;;;;33.83;24.80;;;19.30;99.90;;;;;;4272698;27;20099;-64
2021/08/30 06:28:41;;;;;;;38.50;23.33;;;19.40;99.90;;;;;;4273456;27;20058;-64
2021/08/30 06:30:46;;;;;;;42.80;24.85;;;19.50;99.90;;;;;;4276037;27;20055;-64
2021/08/30 06:32:50;;;;;;;34.17;23.83;;;19.60;99.90;;;;;;4275406;27;20051;-64
2021/08/30 06:34:53;;;;;;;35.28;23.63;;;19.50;99.90;;;;;;4272633;27;20066;-64
2021/08/30 06:36:56;;;;;;;37.03;23.63;;;19.50;99.90;;;;;;4272581;27;20054;-64
2021/08/30 06:39:00;;;;;;;37.20;22.52;;;19.60;99.90;;;;;;4272925;27;20043;-64
2021/08/30 06:41:03;;;;;;;36.10;22.63;;;19.60;99.90;;;;;;4272809;27;20067;-64
2021/08/30 06:43:06;;;;;;;34.00;22.50;;;19.60;99.90;;;;;;4272234;27;20059;-64
2021/08/30 06:45:10;;;;;;;29.10;22.67;;;19.70;99.90;;;;;;4272597;27;20062;-64
2021/08/30 06:47:14;;;;;;;40.03;24.13;;;19.70;99.90;;;;;;4272560;27;20335;-64
2021/08/30 06:49:17;;;;;;;33.67;22.88;;;19.60;99.90;;;;;;4272514;27;20087;-64
2021/08/30 06:51:20;;;;;;;33.45;23.33;;;19.70;99.90;;;;;;4272457;27;20269;-64
2021/08/30 06:53:23;;;;;;;33.25;21.33;;;19.70;99.90;;;;;;4272493;27;20050;-64
2021/08/30 06:55:26;;;;;;;33.58;21.77;;;19.70;99.90;;;;;;4272396;27;20071;-64
2021/08/30 06:57:33;;;;;;;24.33;20.70;;;19.50;99.90;;;;;;4272882;27;20284;-64
2021/08/30 06:59:36;;;;;;;33.35;20.73;;;19.50;99.90;;;;;;4272763;27;20247;-64
2021/08/30 07:01:39;;;;;;;27.17;20.80;;;19.50;99.90;;;;;;4273908;27;20051;-65
2021/08/30 07:03:44;;;;;;;33.40;20.92;;;19.50;99.90;;;;;;4275231;27;20050;-65
2021/08/30 07:05:47;;;;;;;37.20;20.80;;;19.40;99.90;;;;;;4273224;27;20051;-64
2021/08/30 07:07:51;;;;;;;31.80;21.13;;;19.60;99.90;;;;;;4272653;27;20051;-64
2021/08/30 07:09:54;;;;;;;28.02;19.15;;;19.50;99.90;;;;;;4272011;27;20343;-64
2021/08/30 07:11:57;;;;;;;42.28;20.40;;;19.60;99.90;;;;;;4272118;27;20047;-64
2021/08/30 07:14:01;;;;;;;28.67;20.27;;;19.60;99.90;;;;;;4278933;27;20046;-65
2021/08/30 07:16:04;;;;;;;32.92;19.83;;;19.80;99.90;;;;;;4278236;27;20087;-64
2021/08/30 07:18:08;;;;;;;28.70;18.67;;;19.90;99.90;;;;;;4276411;27;20051;-65
2021/08/30 07:20:13;;;;;;;29.13;19.48;;;19.90;99.90;;;;;;4276634;27;20055;-64
2021/08/30 07:22:16;;;;;;;;;;;19.90;99.90;;;;;;4276675;27;20051;-64
2021/08/30 07:24:19;;;;;;;36.42;19.55;;;19.90;99.90;;;;;;4276052;27;19915;-64
2021/08/30 07:26:22;;;;;;;27.17;17.88;;;19.90;99.90;;;;;;4275356;27;20039;-64
2021/08/30 07:28:25;;;;;;;24.15;17.25;;;19.90;99.90;;;;;;4275711;27;20079;-64
2021/08/30 07:30:28;;;;;;;23.00;16.83;;;20.00;99.90;;;;;;4275215;27;20162;-64
2021/08/30 07:32:31;;;;;;;25.98;16.90;;;19.70;99.90;;;;;;4275163;27;20099;-64
2021/08/30 07:34:34;;;;;;;28.00;16.90;;;19.90;99.90;;;;;;4275163;27;20091;-64
2021/08/30 07:36:39;;;;;;;26.80;16.88;;;19.90;99.90;;;;;;4275625;27;20053;-64
2021/08/30 07:38:42;;;;;;;27.58;15.80;;;19.90;99.90;;;;;;4275223;27;20269;-64
2021/08/30 07:40:46;;;;;;;27.58;15.73;;;20.10;99.90;;;;;;4275601;27;20087;-64
2021/08/30 07:42:49;;;;;;;26.83;15.13;;;20.10;99.90;;;;;;4275230;27;20062;-64
2021/08/30 07:44:52;;;;;;;26.13;15.90;;;20.00;99.90;;;;;;4275604;27;20354;-64
2021/08/30 07:46:57;;;;;;;24.15;14.25;;;20.00;99.90;;;;;;4276080;27;20365;-65
2021/08/30 07:49:02;;;;;;;17.00;14.32;;;20.10;99.90;;;;;;4277505;27;20076;-64
2021/08/30 07:51:05;;;;;;;19.05;13.40;;;19.90;99.90;;;;;;4276737;27;20047;-67
2021/08/30 07:53:10;;;;;;;21.13;12.73;;;19.80;99.90;;;;;;4275538;27;20216;-64
2021/08/30 07:55:13;;;;;;;;;;;19.90;99.90;;;;;;4275858;27;20275;-64
2021/08/30 07:57:17;;;;;;;19.67;11.93;;;19.90;99.90;;;;;;4275171;27;19915;-64
2021/08/30 07:59:20;;;;;;;19.60;11.85;;;20.00;99.90;;;;;;4277019;27;20087;-64
2021/08/30 08:01:22;;;;;;;16.95;10.68;;;20.10;99.80;;;;;;4278770;27;20087;-64
2021/08/30 08:03:26;;;;;;;21.75;10.93;;;20.10;99.50;;;;;;4276396;27;20114;-64
2021/08/30 08:05:29;;;;;;;19.80;11.20;;;20.10;99.30;;;;;;4274877;27;20050;-64
2021/08/30 08:07:32;;;;;;;16.77;11.48;;;20.10;99.50;;;;;;4274943;27;20432;-64
2021/08/30 08:09:36;;;;;;;16.55;10.65;;;19.90;99.70;;;;;;4274872;27;20379;-64
2021/08/30 08:11:39;;;;;;;18.30;10.98;;;20.00;99.70;;;;;;4275101;27;20050;-64
2021/08/30 08:13:42;;;;;;;24.45;11.38;;;20.00;99.40;;;;;;4275111;27;20091;-64
2021/08/30 08:15:46;;;;;;;17.02;10.38;;;20.20;99.30;;;;;;4275201;27;20285;-64
2021/08/30 08:17:49;;;;;;;17.40;10.10;;;20.30;99.20;;;;;;4277222;27;20046;-64
2021/08/30 08:19:51;;;;;;;22.38;10.50;;;20.10;99.10;;;;;;4277079;27;20103;-64
2021/08/30 08:21:55;;;;;;;19.13;10.90;;;20.20;98.70;;;;;;4274960;27;20047;-64
2021/08/30 08:23:58;;;;;;;15.68;11.20;;;20.20;98.70;;;;;;4274791;27;20042;-64
2021/08/30 08:26:03;;;;;;;17.75;10.63;;;20.20;98.50;;;;;;4274821;27;20216;-64
2021/08/30 08:28:06;;;;;;;15.98;10.30;;;20.10;98.70;;;;;;4274569;27;20098;-65
2021/08/30 08:30:10;;;;;;;21.60;10.40;;;20.00;98.70;;;;;;4273236;27;20054;-64
2021/08/30 08:32:13;;;;;;;22.05;10.82;;;20.00;98.90;;;;;;4274603;27;20099;-64
2021/08/30 08:34:15;;;;;;;25.10;11.57;;;20.20;99.00;;;;;;4256080;27;20100;-64
2021/08/30 08:36:20;;;;;;;12.55;10.13;;;20.20;98.70;;;;;;4274570;27;20235;-65
2021/08/30 08:38:23;;;;;;;;;;;20.30;98.60;;;;;;4275241;27;20055;-64
2021/08/30 08:40:28;;;;;;;14.73;10.68;;;20.30;98.40;;;;;;4277023;27;19915;-65
2021/08/30 08:42:36;;;;;;;18.38;10.95;;;20.30;98.60;;;;;;4276745;27;20051;-67
2021/08/30 08:44:39;;;;;;;17.50;10.07;;;20.50;98.50;;;;;;4277610;27;20054;-64
2021/08/30 08:46:42;;;;;;;18.40;10.00;;;20.30;98.10;;;;;;4277965;27;20058;-64
2021/08/30 08:48:45;;;;;;;17.52;10.27;;;20.50;97.90;;;;;;4275181;27;20388;-64
2021/08/30 08:50:48;;;;;;;21.83;9.32;;;20.70;97.40;;;;;;4274340;27;20055;-64
2021/08/30 08:52:51;;;;;;;13.35;9.23;;;20.80;97.00;;;;;;4274556;27;20111;-64
2021/08/30 08:54:56;;;;;;;17.05;8.70;;;20.90;96.90;;;;;;4275304;27;20350;-64
2021/08/30 08:57:02;;;;;;;15.65;9.20;;;20.80;96.80;;;;;;4274933;27;20047;-64
2021/08/30 08:59:07;;;;;;;17.58;9.55;;;21.00;96.80;;;;;;4274266;27;20331;-64
2021/08/30 09:01:11;;;;;;;14.25;8.90;;;21.00;96.30;;;;;;4277307;27;20083;-64
2021/08/30 09:03:15;;;;;;;20.75;9.00;;;21.10;96.00;;;;;;4282401;27;20038;-64
2021/08/30 09:05:23;;;;;;;19.48;8.88;;;21.10;96.00;;;;;;4273754;27;20399;-64
2021/08/30 09:07:33;;;;;;;18.33;9.15;;;21.40;95.80;;;;;;4273804;27;20046;-64
2021/08/30 09:09:38;;;;;;;25.98;9.38;;;21.20;95.60;;;;;;4273676;27;20075;-64
2021/08/30 09:11:45;;;;;;;;;;;21.30;95.70;;;;;;4274360;27;20428;-64
2021/08/30 09:13:50;;;;;;;28.52;9.90;;;21.30;95.40;;;;;;4273303;27;19960;-64
2021/08/30 09:15:54;;;;;;;;;;;21.10;95.50;;;;;;4274056;27;20064;-64
2021/08/30 09:17:57;;;;;;;17.40;8.95;;;21.00;95.40;;;;;;4273638;27;19915;-65
2021/08/30 09:20:02;;;;;;;16.10;9.40;;;21.20;95.80;;;;;;4273066;27;20095;-64
2021/08/30 09:22:06;;;;;;;15.20;9.38;;;21.10;95.50;;;;;;4273248;27;20100;-64
2021/08/30 09:24:11;;;;;;;18.48;9.77;;;21.10;95.40;;;;;;4273587;27;20087;-64
2021/08/30 09:26:15;;;;;;;23.20;10.05;;;21.00;95.60;;;;;;4273516;27;20054;-65
2021/08/30 09:28:28;;;;;;;24.92;9.02;;;21.00;95.80;;;;;;4273291;27;20051;-64
2021/08/30 09:30:31;;;;;;;15.23;8.63;;;21.10;95.60;;;;;;4274155;27;20080;-64
2021/08/30 09:32:35;;;;;;;14.65;8.75;;;21.20;95.30;;;;;;4275300;27;20257;-66
2021/08/30 09:34:46;;;;;;;16.05;8.23;;;21.00;94.70;;;;;;4273395;27;20123;-65
2021/08/30 09:36:52;;;;;;;11.98;8.13;;;21.10;94.80;;;;;;4273430;27;20054;-64
2021/08/30 09:38:55;;;;;;;13.65;8.23;;;21.00;94.50;;;;;;4273455;27;20166;-64
2021/08/30 09:41:06;;;;;;;12.65;8.00;;;20.80;94.80;;;;;;4272619;27;20042;-64
2021/08/30 09:43:18;;;;;;;14.90;8.10;;;20.90;95.00;;;;;;4273114;27;20047;-64
2021/08/30 09:45:23;;;;;;;18.00;8.80;;;21.10;95.00;;;;;;4273144;27;20051;-64
2021/08/30 09:47:26;;;;;;;14.32;7.72;;;21.10;94.60;;;;;;4273044;27;20381;-64
2021/08/30 09:49:30;;;;;;;18.90;7.40;;;21.10;94.60;;;;;;4273017;27;20051;-64
2021/08/30 09:51:37;;;;;;;11.55;7.60;;;21.10;94.70;;;;;;4273212;27;20080;-64
2021/08/30 09:53:40;;;;;;;14.50;7.60;;;21.10;94.60;;;;;;4273041;27;20343;-64
2021/08/30 09:55:44;;;;;;;12.90;7.35;;;21.00;94.50;;;;;;4273017;27;20115;-64
2021/08/30 09:57:50;;;;;;;10.45;7.38;;;20.90;94.30;;;;;;4272953;27;20054;-64
2021/08/30 09:59:56;;;;;;;20.05;8.07;;;20.90;94.30;;;;;;4273166;27;20051;-64
2021/08/30 10:02:01;;;;;;;13.55;7.88;;;20.90;94.30;;;;;;4272913;27;20111;-64
2021/08/30 10:04:06;;;;;;;12.27;6.65;;;21.10;94.30;;;;;;4272774;27;20300;-64
2021/08/30 10:06:12;;;;;;;10.43;7.05;;;21.00;94.00;;;;;;4272744;27;20194;-64
2021/08/30 10:08:17;;;;;;;10.32;6.88;;;21.10;93.90;;;;;;4272757;27;20050;-64
2021/08/30 10:10:21;;;;;;;11.52;7.20;;;21.20;94.00;;;;;;4272802;27;20091;-64
2021/08/30 10:12:24;;;;;;;17.00;6.72;;;21.30;93.70;;;;;;4273264;27;20166;-64
2021/08/30 10:14:30;;;;;;;11.15;7.07;;;21.30;93.50;;;;;;4275837;27;20047;-64
2021/08/30 10:16:34;;;;;;;14.30;7.15;;;21.20;93.50;;;;;;4274892;27;20091;-64
2021/08/30 10:18:47;;;;;;;12.90;6.90;;;21.20;93.50;;;;;;4272992;27;20399;-64
2021/08/30 10:20:50;;;;;;;9.82;7.28;;;21.30;93.40;;;;;;4272818;27;20108;-64
2021/08/30 10:23:04;;;;;;;17.77;6.82;;;21.40;93.30;;;;;;4272933;27;20428;-65
2021/08/30 10:25:15;;;;;;;17.20;6.93;;;21.40;93.30;;;;;;4273071;27;20079;-64
2021/08/30 10:27:30;;;;;;;9.90;7.13;;;21.60;93.00;;;;;;4254609;27;20100;-64
2021/08/30 10:29:35;;;;;;;17.25;7.47;;;21.40;92.90;;;;;;4273004;27;20059;-64
2021/08/30 10:31:46;;;;;;;13.13;6.68;;;21.40;92.90;;;;;;4272653;27;20059;-64
2021/08/30 10:33:51;;;;;;;11.13;7.22;;;21.60;92.90;;;;;;4272590;27;20138;-64
2021/08/30 10:35:55;;;;;;;;;;;21.50;92.50;;;;;;4273112;27;20249;-64
2021/08/30 10:38:01;;;;;;;18.58;7.60;;;21.60;92.90;;;;;;4272448;27;19967;-65
2021/08/30 10:40:15;;;;;;;13.98;7.78;;;21.50;92.80;;;;;;4272386;27;20122;-64